createdAt,value
2023-04-24T00:02:11.965Z,5.03
2023-04-24T00:04:42.406Z,5.87
2023-04-24T00:07:09.767Z,2.37
2023-04-24T00:09:36.750Z,4.67
2023-04-24T00:12:05.390Z,2.70
2023-04-24T00:14:32.754Z,2.50
2023-04-24T00:16:59.646Z,2.50
2023-04-24T00:19:26.638Z,2.50
2023-04-24T00:21:53.560Z,2.40
2023-04-24T00:24:21.320Z,2.33
2023-04-24T00:26:48.375Z,2.73
2023-04-24T00:29:15.272Z,2.50
2023-04-24T00:31:42.244Z,2.10
2023-04-24T00:34:09.344Z,3.50
2023-04-24T00:36:36.243Z,2.03
2023-04-24T00:39:03.286Z,2.23
2023-04-24T00:41:31.290Z,1.97
2023-04-24T00:43:58.284Z,2.27
2023-04-24T00:46:25.466Z,2.37
2023-04-24T00:48:52.805Z,1.93
2023-04-24T00:51:20.839Z,2.17
2023-04-24T00:53:47.796Z,2.00
2023-04-24T00:56:15.053Z,2.43
2023-04-24T00:58:43.528Z,2.10
2023-04-24T01:01:12.827Z,2.33
2023-04-24T01:03:41.426Z,1.87
2023-04-24T01:06:11.224Z,1.73
2023-04-24T01:08:40.677Z,2.27
2023-04-24T01:11:07.922Z,1.63
2023-04-24T01:13:35.777Z,1.70
2023-04-24T01:16:03.121Z,2.40
2023-04-24T01:18:30.401Z,2.97
2023-04-24T01:21:04.318Z,1.90
2023-04-24T01:23:31.337Z,2.20
2023-04-24T01:25:58.412Z,2.33
2023-04-24T01:28:25.484Z,4.50
2023-04-24T01:30:53.580Z,2.03
2023-04-24T01:33:22.971Z,2.23
2023-04-24T01:35:51.253Z,2.47
2023-04-24T01:38:18.167Z,2.33
2023-04-24T01:40:45.064Z,5.03
2023-04-24T01:43:13.973Z,2.00
2023-04-24T01:45:40.927Z,2.83
2023-04-24T01:48:08.065Z,2.10
2023-04-24T01:50:35.213Z,2.30
2023-04-24T01:53:02.131Z,2.53
2023-04-24T01:55:29.054Z,3.10
2023-04-24T01:57:57.932Z,2.27
2023-04-24T02:00:25.835Z,2.70
2023-04-24T02:02:53.074Z,4.13
2023-04-24T02:05:20.229Z,1.93
2023-04-24T02:07:47.195Z,1.87
2023-04-24T02:10:14.140Z,2.10
2023-04-24T02:12:41.048Z,2.00
2023-04-24T02:15:08.461Z,2.37
2023-04-24T02:17:35.395Z,2.53
2023-04-24T02:20:02.287Z,3.00
2023-04-24T02:22:29.130Z,2.97
2023-04-24T02:24:56.276Z,2.63
2023-04-24T02:27:23.168Z,3.20
2023-04-24T02:29:50.039Z,3.03
2023-04-24T02:32:17.024Z,3.67
2023-04-24T02:34:43.996Z,4.57
2023-04-24T02:37:11.040Z,3.00
2023-04-24T02:39:37.914Z,6.20
2023-04-24T02:42:04.947Z,4.10
2023-04-24T02:44:31.893Z,2.30
2023-04-24T02:46:58.821Z,3.40
2023-04-24T02:49:25.762Z,2.37
2023-04-24T02:51:52.700Z,2.37
2023-04-24T02:54:19.543Z,3.37
2023-04-24T02:56:46.381Z,2.77
2023-04-24T02:59:13.251Z,1.97
2023-04-24T03:01:40.366Z,3.40
2023-04-24T03:04:07.820Z,2.10
2023-04-24T03:06:36.272Z,2.03
2023-04-24T03:09:04.469Z,2.20
2023-04-24T03:11:31.436Z,2.13
2023-04-24T03:13:58.376Z,2.20
2023-04-24T03:16:25.376Z,2.73
2023-04-24T03:18:53.018Z,2.57
2023-04-24T03:21:20.157Z,2.00
2023-04-24T03:23:47.111Z,2.57
2023-04-24T03:26:13.955Z,3.20
2023-04-24T03:28:40.870Z,3.27
2023-04-24T03:31:07.799Z,2.90
2023-04-24T03:33:34.712Z,3.00
2023-04-24T03:36:01.574Z,2.70
2023-04-24T03:38:28.460Z,3.03
2023-04-24T03:40:55.650Z,3.23
2023-04-24T03:43:22.564Z,2.97
2023-04-24T03:45:49.611Z,6.40
2023-04-24T03:48:16.500Z,3.90
2023-04-24T03:50:43.375Z,3.23
2023-04-24T03:53:10.422Z,3.13
2023-04-24T03:55:37.331Z,4.03
2023-04-24T03:58:04.209Z,4.23
2023-04-24T04:00:32.904Z,4.60
2023-04-24T04:03:00.208Z,4.13
2023-04-24T04:05:27.356Z,4.77
2023-04-24T04:07:54.250Z,4.00
2023-04-24T04:10:21.578Z,4.87
2023-04-24T04:12:48.613Z,3.67
2023-04-24T04:15:15.822Z,6.27
2023-04-24T04:17:42.753Z,5.13
2023-04-24T04:20:11.070Z,8.60
2023-04-24T04:22:38.429Z,5.10
2023-04-24T04:25:06.176Z,8.57
2023-04-24T04:27:33.350Z,6.40
2023-04-24T04:30:05.400Z,6.80
2023-04-24T04:32:36.756Z,6.10
2023-04-24T04:35:04.449Z,6.03
2023-04-24T04:37:34.874Z,5.33
2023-04-24T04:40:12.935Z,6.13
2023-04-24T04:42:41.263Z,6.03
2023-04-24T04:45:09.802Z,5.47
2023-04-24T04:47:36.832Z,6.10
2023-04-24T04:50:06.251Z,7.30
2023-04-24T04:52:33.129Z,6.07
2023-04-24T04:54:59.983Z,5.80
2023-04-24T04:57:27.086Z,7.73
2023-04-24T04:59:54.077Z,12.40
2023-04-24T05:02:21.565Z,7.43
2023-04-24T05:04:48.748Z,6.67
2023-04-24T05:07:15.814Z,7.63
2023-04-24T05:09:42.904Z,6.83
2023-04-24T05:12:09.971Z,7.20
2023-04-24T05:14:36.917Z,7.80
2023-04-24T05:17:04.024Z,7.20
2023-04-24T05:19:33.761Z,8.20
2023-04-24T05:22:03.992Z,9.73
2023-04-24T05:24:31.009Z,8.00
2023-04-24T05:26:59.520Z,5.83
2023-04-24T05:29:27.290Z,6.80
2023-04-24T05:31:54.464Z,8.47
2023-04-24T05:34:21.345Z,7.53
2023-04-24T05:36:48.687Z,6.03
2023-04-24T05:39:16.089Z,7.83
2023-04-24T05:41:43.257Z,9.43
2023-04-24T05:44:10.453Z,5.83
2023-04-24T05:46:37.489Z,6.30
2023-04-24T05:49:04.506Z,6.83
2023-04-24T05:51:32.560Z,6.13
2023-04-24T05:53:59.469Z,5.67
2023-04-24T05:56:26.392Z,4.83
2023-04-24T05:58:53.293Z,6.47
2023-04-24T06:01:20.603Z,8.20
2023-04-24T06:03:47.822Z,4.97
2023-04-24T06:06:15.018Z,6.30
2023-04-24T06:08:43.360Z,4.80
2023-04-24T06:11:10.400Z,4.70
2023-04-24T06:13:37.283Z,4.90
2023-04-24T06:16:06.162Z,4.83
2023-04-24T06:18:33.154Z,4.63
2023-04-24T06:21:00.316Z,5.70
2023-04-24T06:23:27.228Z,5.30
2023-04-24T06:25:54.247Z,4.37
2023-04-24T06:28:21.128Z,4.23
2023-04-24T06:30:48.078Z,3.60
2023-04-24T06:33:21.085Z,3.63
2023-04-24T06:35:49.348Z,3.70
2023-04-24T06:38:16.953Z,3.43
2023-04-24T06:40:43.965Z,3.83
2023-04-24T06:43:11.856Z,3.10
2023-04-24T06:45:40.713Z,2.90
2023-04-24T06:48:07.917Z,2.93
2023-04-24T06:50:34.873Z,2.83
2023-04-24T06:53:01.832Z,2.23
2023-04-24T06:55:28.760Z,1.83
2023-04-24T06:57:55.692Z,1.80
2023-04-24T07:00:24.933Z,2.00
2023-04-24T07:02:51.937Z,1.60
2023-04-24T07:05:20.814Z,1.57
2023-04-24T07:07:49.879Z,2.00
2023-04-24T07:10:16.996Z,1.60
2023-04-24T07:12:43.905Z,1.53
2023-04-24T07:15:11.557Z,1.60
2023-04-24T07:17:39.463Z,1.40
2023-04-24T07:20:10.154Z,2.33
2023-04-24T07:22:38.911Z,1.80
2023-04-24T07:25:06.545Z,2.30
2023-04-24T07:27:35.600Z,1.33
2023-04-24T07:30:05.013Z,1.70
2023-04-24T07:32:32.146Z,1.33
2023-04-24T07:34:59.016Z,1.63
2023-04-24T07:37:26.318Z,5.97
2023-04-24T07:39:53.278Z,1.50
2023-04-24T07:42:20.396Z,1.67
2023-04-24T07:44:48.542Z,1.60
2023-04-24T07:47:16.715Z,1.73
2023-04-24T07:49:43.920Z,1.63
2023-04-24T07:52:11.045Z,1.30
2023-04-24T07:54:38.356Z,3.37
2023-04-24T07:57:07.201Z,4.40
2023-04-24T07:59:34.073Z,2.00
2023-04-24T08:03:54.669Z,2.77
2023-04-24T08:06:21.696Z,3.33
2023-04-24T08:08:48.639Z,6.53
2023-04-24T08:11:15.732Z,1.93
2023-04-24T08:13:42.642Z,3.40
2023-04-24T08:16:09.655Z,3.37
2023-04-24T08:18:36.954Z,1.97
2023-04-24T08:21:04.325Z,2.63
2023-04-24T08:23:31.316Z,2.13
2023-04-24T08:25:58.704Z,2.40
2023-04-24T08:28:26.805Z,5.07
2023-04-24T08:30:55.540Z,2.80
2023-04-24T08:33:25.734Z,2.27
2023-04-24T08:35:53.689Z,5.43
2023-04-24T08:38:20.804Z,2.27
2023-04-24T08:40:50.482Z,2.40
2023-04-24T08:43:18.349Z,4.03
2023-04-24T08:45:45.699Z,3.00
2023-04-24T08:48:27.442Z,2.33
2023-04-24T08:50:59.955Z,2.30
2023-04-24T08:53:28.233Z,3.13
2023-04-24T08:55:57.639Z,2.83
2023-04-24T08:58:27.510Z,2.40
2023-04-24T09:00:59.391Z,4.30
2023-04-24T09:03:32.826Z,2.30
2023-04-24T09:06:01.182Z,3.27
2023-04-24T09:08:31.697Z,3.00
2023-04-24T09:10:59.863Z,2.80
2023-04-24T09:13:27.688Z,2.63
2023-04-24T09:15:55.192Z,3.03
2023-04-24T09:18:22.088Z,2.60
2023-04-24T09:21:10.118Z,1.93
2023-04-24T09:23:37.354Z,1.97
2023-04-24T09:26:08.567Z,2.40
2023-04-24T09:28:41.602Z,2.07
2023-04-24T09:31:15.624Z,2.97
2023-04-24T09:34:09.056Z,2.30
2023-04-24T09:36:43.458Z,2.50
2023-04-24T09:39:16.254Z,2.30
2023-04-24T09:41:49.820Z,2.53
2023-04-24T09:44:25.198Z,2.13
2023-04-24T09:47:00.860Z,2.30
2023-04-24T09:49:31.257Z,2.80
2023-04-24T09:52:07.089Z,2.20
2023-04-24T09:54:34.759Z,2.10
2023-04-24T09:57:01.859Z,4.13
2023-04-24T09:59:28.962Z,2.40
2023-04-24T10:01:57.811Z,3.23
2023-04-24T10:04:28.727Z,2.40
2023-04-24T10:06:58.418Z,2.20
2023-04-24T10:09:27.650Z,2.30
2023-04-24T10:11:56.093Z,4.50
2023-04-24T10:14:26.731Z,2.10
2023-04-24T10:16:59.630Z,2.60
2023-04-24T10:19:27.574Z,2.20
2023-04-24T10:21:57.050Z,2.73
2023-04-24T10:24:23.950Z,1.77
2023-04-24T10:26:50.874Z,2.77
2023-04-24T10:29:20.127Z,2.13
2023-04-24T10:31:47.619Z,1.90
2023-04-24T10:34:21.229Z,1.70
2023-04-24T10:36:58.116Z,2.20
2023-04-24T10:39:27.175Z,1.67
2023-04-24T10:41:58.781Z,1.40
2023-04-24T10:44:26.295Z,1.90
2023-04-24T10:46:57.244Z,1.93
2023-04-24T10:49:32.905Z,1.50
2023-04-24T10:52:07.946Z,1.37
2023-04-24T10:54:48.209Z,2.30
2023-04-24T10:57:23.990Z,1.60
2023-04-24T11:00:13.267Z,1.80
2023-04-24T11:02:49.273Z,2.07
2023-04-24T11:05:18.654Z,1.70
2023-04-24T11:08:12.857Z,1.73
2023-04-24T11:10:45.703Z,1.57
2023-04-24T11:13:23.431Z,1.60
2023-04-24T11:16:26.897Z,1.50
2023-04-24T11:19:09.450Z,2.10
2023-04-24T11:22:14.647Z,1.20
2023-04-24T11:24:54.053Z,1.93
2023-04-24T11:27:23.456Z,1.40
2023-04-24T11:30:02.658Z,1.37
2023-04-24T11:32:43.341Z,1.57
2023-04-24T11:35:29.473Z,2.70
2023-04-24T11:40:26.970Z,1.90
2023-04-24T11:42:58.307Z,1.70
2023-04-24T11:45:29.327Z,2.30
2023-04-24T11:47:56.811Z,1.60
2023-04-24T11:50:28.575Z,1.93
2023-04-24T11:52:56.788Z,1.67
2023-04-24T11:55:27.511Z,1.67
2023-04-24T11:57:59.434Z,1.47
2023-04-24T12:00:34.541Z,1.80
2023-04-24T12:03:13.228Z,2.07
2023-04-24T12:05:41.321Z,1.20
2023-04-24T12:08:08.433Z,1.47
2023-04-24T12:10:37.436Z,1.20
2023-04-24T12:13:04.552Z,1.73
2023-04-24T12:15:31.613Z,1.40
2023-04-24T12:17:58.760Z,2.03
2023-04-24T12:20:31.052Z,2.10
2023-04-24T12:23:01.747Z,1.30
2023-04-24T12:25:32.295Z,1.20
2023-04-24T12:28:05.134Z,3.03
2023-04-24T12:30:36.248Z,2.70
2023-04-24T12:33:04.519Z,1.90
2023-04-24T12:35:34.953Z,3.13
2023-04-24T12:38:12.350Z,2.37
2023-04-24T12:40:39.432Z,2.20
2023-04-24T12:43:18.450Z,2.17
2023-04-24T12:45:46.330Z,1.97
2023-04-24T12:48:14.974Z,2.17
2023-04-24T12:50:46.484Z,1.67
2023-04-24T12:53:16.256Z,1.90
2023-04-24T12:55:43.563Z,1.77
2023-04-24T12:58:10.431Z,1.77
2023-04-24T13:00:38.250Z,1.83
2023-04-24T13:03:05.934Z,1.87
2023-04-24T13:05:32.962Z,1.80
2023-04-24T13:07:59.884Z,2.87
2023-04-24T13:10:26.819Z,1.90
2023-04-24T13:12:53.752Z,1.90
2023-04-24T13:15:20.986Z,1.87
2023-04-24T13:17:47.829Z,1.60
2023-04-24T13:20:14.755Z,1.97
2023-04-24T13:22:41.930Z,1.60
2023-04-24T13:25:10.102Z,1.77
2023-04-24T13:27:39.873Z,1.57
2023-04-24T13:30:08.277Z,1.90
2023-04-24T13:32:36.206Z,1.97
2023-04-24T13:35:03.432Z,2.00
2023-04-24T13:37:30.369Z,2.03
2023-04-24T13:39:57.241Z,2.27
2023-04-24T13:42:24.234Z,1.77
2023-04-24T13:44:52.081Z,1.90
2023-04-24T13:47:19.112Z,5.33
2023-04-24T13:49:46.055Z,2.77
2023-04-24T13:52:12.935Z,2.17
2023-04-24T13:54:39.816Z,3.20
2023-04-24T13:57:06.794Z,2.20
2023-04-24T13:59:34.140Z,3.93
2023-04-24T14:02:01.154Z,2.80
2023-04-24T14:04:28.423Z,2.60
2023-04-24T14:06:55.573Z,1.93
2023-04-24T14:09:22.460Z,2.30
2023-04-24T14:11:49.373Z,2.73
2023-04-24T14:14:16.850Z,4.27
2023-04-24T14:16:43.747Z,3.90
2023-04-24T14:19:10.616Z,3.73
2023-04-24T14:21:37.471Z,2.27
2023-04-24T14:24:04.481Z,3.57
2023-04-24T14:26:31.482Z,3.10
2023-04-24T14:29:11.546Z,4.80
2023-04-24T14:31:41.832Z,3.27
2023-04-24T14:34:08.784Z,2.53
2023-04-24T14:36:36.163Z,4.10
2023-04-24T14:39:07.275Z,3.20
2023-04-24T14:41:36.498Z,7.63
2023-04-24T14:44:04.888Z,3.30
2023-04-24T14:46:32.353Z,3.17
2023-04-24T14:48:59.412Z,4.17
2023-04-24T14:51:26.485Z,3.60
2023-04-24T14:53:53.905Z,2.40
2023-04-24T14:56:21.106Z,3.40
2023-04-24T14:58:48.181Z,3.20
2023-04-24T15:01:17.726Z,2.40
2023-04-24T15:03:45.705Z,3.53
2023-04-24T15:06:13.163Z,2.77
2023-04-24T15:08:40.042Z,3.00
2023-04-24T15:11:07.206Z,2.83
2023-04-24T15:13:34.101Z,2.53
2023-04-24T15:16:01.264Z,2.20
2023-04-24T15:18:29.730Z,3.73
2023-04-24T15:20:57.625Z,3.23
2023-04-24T15:23:24.520Z,2.40
2023-04-24T15:25:51.588Z,2.80
2023-04-24T15:28:18.848Z,3.00
2023-04-24T15:30:45.952Z,3.23
2023-04-24T15:33:12.925Z,2.93
2023-04-24T15:35:40.034Z,3.07
2023-04-24T15:38:07.104Z,2.83
2023-04-24T15:40:34.169Z,3.33
2023-04-24T15:43:01.267Z,3.07
2023-04-24T15:45:28.221Z,2.73
2023-04-24T15:47:55.929Z,3.10
2023-04-24T15:50:23.790Z,3.33
2023-04-24T15:52:50.787Z,3.20
2023-04-24T15:55:17.812Z,3.10
2023-04-24T15:57:44.939Z,2.90
2023-04-24T16:00:13.624Z,2.70
2023-04-24T16:02:41.085Z,2.83
2023-04-24T16:05:08.782Z,3.00
2023-04-24T16:07:39.045Z,3.53
2023-04-24T16:10:06.993Z,2.83
2023-04-24T16:12:34.566Z,4.00
2023-04-24T16:15:01.868Z,3.00
2023-04-24T16:17:28.735Z,2.60
2023-04-24T16:19:55.629Z,2.60
2023-04-24T16:22:22.589Z,3.30
2023-04-24T16:24:49.478Z,3.30
2023-04-24T16:27:16.398Z,2.93
2023-04-24T16:29:43.395Z,2.60
2023-04-24T16:32:10.986Z,3.03
2023-04-24T16:34:37.995Z,2.73
2023-04-24T16:37:06.585Z,5.83
2023-04-24T16:39:34.808Z,3.20
2023-04-24T16:42:01.753Z,2.17
2023-04-24T16:44:28.684Z,3.50
2023-04-24T16:46:55.800Z,3.47
2023-04-24T16:49:23.750Z,5.37
2023-04-24T16:51:51.083Z,3.37
2023-04-24T16:54:18.103Z,5.00
2023-04-24T16:56:45.148Z,2.83
2023-04-24T16:59:12.323Z,2.90
2023-04-24T17:01:39.225Z,3.77
2023-04-24T17:04:06.488Z,3.57
2023-04-24T17:06:33.661Z,3.10
2023-04-24T17:09:00.698Z,3.37
2023-04-24T17:11:29.878Z,5.07
2023-04-24T17:14:01.455Z,2.70
2023-04-24T17:16:29.259Z,3.60
2023-04-24T17:18:56.249Z,3.23
2023-04-24T17:21:23.459Z,3.57
2023-04-24T17:23:50.328Z,2.90
2023-04-24T17:26:17.317Z,4.30
2023-04-24T17:28:44.260Z,3.33
2023-04-24T17:31:11.226Z,3.00
2023-04-24T17:33:38.705Z,3.37
2023-04-24T17:36:07.158Z,2.90
2023-04-24T17:38:34.242Z,3.50
2023-04-24T17:41:01.525Z,16.83
2023-04-24T17:43:28.400Z,3.93
2023-04-24T17:45:56.427Z,4.40
2023-04-24T17:48:23.556Z,5.63
2023-04-24T17:50:50.703Z,3.97
2023-04-24T17:53:18.912Z,3.77
2023-04-24T17:55:46.568Z,4.03
2023-04-24T17:58:14.228Z,6.60
2023-04-24T18:00:41.997Z,7.50
2023-04-24T18:03:13.616Z,6.03
2023-04-24T18:05:40.933Z,4.30
2023-04-24T18:08:07.802Z,4.00
2023-04-24T18:10:37.754Z,5.03
2023-04-24T18:13:05.548Z,4.80
2023-04-24T18:15:32.677Z,4.40
2023-04-24T18:17:59.796Z,4.93
2023-04-24T18:20:27.422Z,5.63
2023-04-24T18:22:54.734Z,5.10
2023-04-24T18:25:26.523Z,4.83
2023-04-24T18:27:54.780Z,4.57
2023-04-24T18:30:23.861Z,5.37
2023-04-24T18:32:53.258Z,4.10
2023-04-24T18:35:21.417Z,5.13
2023-04-24T18:37:48.921Z,3.90
2023-04-24T18:40:17.296Z,4.07
2023-04-24T18:42:45.051Z,3.83
2023-04-24T18:45:14.897Z,3.10
2023-04-24T18:47:43.466Z,3.97
2023-04-24T18:50:11.739Z,4.40
2023-04-24T18:52:39.153Z,4.43
2023-04-24T18:55:07.366Z,3.30
2023-04-24T18:57:34.542Z,3.93
2023-04-24T19:00:01.610Z,5.60
2023-04-24T19:02:28.746Z,4.10
2023-04-24T19:04:55.838Z,5.43
2023-04-24T19:07:22.927Z,4.37
2023-04-24T19:09:49.772Z,5.20
2023-04-24T19:12:17.573Z,4.90
2023-04-24T19:14:46.145Z,5.97
2023-04-24T19:17:13.193Z,4.03
2023-04-24T19:19:40.126Z,6.10
2023-04-24T19:22:07.589Z,4.73
2023-04-24T19:24:34.731Z,4.70
2023-04-24T19:27:02.106Z,7.90
2023-04-24T19:29:29.148Z,6.90
2023-04-24T19:31:57.697Z,4.90
2023-04-24T19:34:25.931Z,4.30
2023-04-24T19:36:53.212Z,5.17
2023-04-24T19:39:20.120Z,4.87
2023-04-24T19:41:47.115Z,8.13
2023-04-24T19:44:15.429Z,4.33
2023-04-24T19:46:42.603Z,5.40
2023-04-24T19:49:09.618Z,5.60
2023-04-24T19:51:37.408Z,4.53
2023-04-24T19:54:06.135Z,4.13
2023-04-24T19:56:33.822Z,4.83
2023-04-24T19:59:00.951Z,4.60
2023-04-24T20:01:28.152Z,4.90
2023-04-24T20:03:55.409Z,4.47
2023-04-24T20:06:22.493Z,4.13
2023-04-24T20:08:49.621Z,3.90
2023-04-24T20:11:17.100Z,11.80
2023-04-24T20:13:44.148Z,11.20
2023-04-24T20:16:11.542Z,5.23
2023-04-24T20:18:38.794Z,7.93
2023-04-24T20:21:05.773Z,5.70
2023-04-24T20:23:32.795Z,5.87
2023-04-24T20:25:59.877Z,6.43
2023-04-24T20:28:29.922Z,11.90
2023-04-24T20:30:58.922Z,9.10
2023-04-24T20:33:27.796Z,8.43
2023-04-24T20:35:54.799Z,7.67
2023-04-24T20:38:22.677Z,6.97
2023-04-24T20:40:57.837Z,10.17
2023-04-24T20:43:29.554Z,12.53
2023-04-24T20:45:57.830Z,8.43
2023-04-24T20:48:26.376Z,4.60
2023-04-24T20:50:54.023Z,5.03
2023-04-24T20:53:21.478Z,6.00
2023-04-24T20:55:48.900Z,5.30
2023-04-24T20:58:21.889Z,5.47
2023-04-24T21:00:49.608Z,6.00
2023-04-24T21:03:16.699Z,5.97
2023-04-24T21:05:43.652Z,6.20
2023-04-24T21:08:10.615Z,6.50
2023-04-24T21:10:37.641Z,7.70
2023-04-24T21:13:04.626Z,6.20
2023-04-24T21:15:31.677Z,5.33
2023-04-24T21:17:58.675Z,8.50
2023-04-24T21:20:25.647Z,5.70
2023-04-24T21:22:52.526Z,5.67
2023-04-24T21:25:19.539Z,5.40
2023-04-24T21:27:46.745Z,8.33
2023-04-24T21:30:13.654Z,5.27
2023-04-24T21:32:40.902Z,5.30
2023-04-24T21:35:08.581Z,6.70
2023-04-24T21:37:37.623Z,6.07
2023-04-24T21:40:05.224Z,6.40
2023-04-24T21:42:32.390Z,6.17
2023-04-24T21:44:59.252Z,5.10
2023-04-24T21:47:26.187Z,4.93
2023-04-24T21:49:53.109Z,5.37
2023-04-24T21:52:20.083Z,5.47
2023-04-24T21:54:46.971Z,6.10
2023-04-24T21:57:13.958Z,5.60
2023-04-24T21:59:41.102Z,5.27
2023-04-24T22:02:08.184Z,5.10
2023-04-24T22:04:35.474Z,5.13
2023-04-24T22:07:02.553Z,4.47
2023-04-24T22:09:29.403Z,6.50
2023-04-24T22:11:56.604Z,5.27
2023-04-24T22:14:23.531Z,12.20
2023-04-24T22:16:50.413Z,6.10
2023-04-24T22:19:17.291Z,5.93
2023-04-24T22:21:44.326Z,7.43
2023-04-24T22:24:11.258Z,5.83
2023-04-24T22:26:38.204Z,4.83
2023-04-24T22:29:05.198Z,4.77
2023-04-24T22:31:32.528Z,4.17
2023-04-24T22:33:59.614Z,5.10
2023-04-24T22:36:26.955Z,4.33
2023-04-24T22:38:54.410Z,4.63
2023-04-24T22:41:21.949Z,4.63
2023-04-24T22:43:49.348Z,4.67
2023-04-24T22:46:17.711Z,4.90
2023-04-24T22:48:45.621Z,5.50
2023-04-24T22:51:12.591Z,5.53
2023-04-24T22:53:39.525Z,4.00
2023-04-24T22:56:07.126Z,4.57
2023-04-24T22:58:34.009Z,4.83
2023-04-24T23:01:01.075Z,5.00
2023-04-24T23:03:28.191Z,5.17
2023-04-24T23:05:55.528Z,4.90
2023-04-24T23:08:22.360Z,4.50
2023-04-24T23:10:49.301Z,4.73
2023-04-24T23:13:16.571Z,4.83
2023-04-24T23:15:43.582Z,3.87
2023-04-24T23:18:11.485Z,4.63
2023-04-24T23:20:38.864Z,4.83
2023-04-24T23:23:05.814Z,5.03
2023-04-24T23:25:32.873Z,4.67
2023-04-24T23:27:59.741Z,4.70
2023-04-24T23:30:26.847Z,5.23
2023-04-24T23:32:53.925Z,5.00
2023-04-24T23:35:21.024Z,3.90
2023-04-24T23:37:48.126Z,8.33
2023-04-24T23:40:15.188Z,5.20
2023-04-24T23:42:42.210Z,4.67
2023-04-24T23:45:10.845Z,4.33
2023-04-24T23:47:38.398Z,4.30
2023-04-24T23:50:06.655Z,4.93
2023-04-24T23:52:35.323Z,4.50
2023-04-24T23:55:06.407Z,5.60
2023-04-24T23:57:33.287Z,4.07
